Terminal Aerodrome Forecast
Issued by NWS Jackson, KY

Home | Current Version | Previous Version | Text Only | Print | Product List | Glossary On
Versions: 1 2 3 4 5 6 7 8 9 10 11 12 13 14 15 16 17 18
000
FTUS43 KJKL 271600 AAA
TAFJKL
TAF AMD
KJKL 271629Z 2716/2812 VRB05KT 5SM BR VCTS SCT008 SCT035CB BKN100
      TEMPO 2716/2718 1/2SM FG
     FM271800 VRB05KT 6SM BR VCTS SCT008 SCT035CB BKN100
      TEMPO 2718/2722 VRB15G30KT 2SM +TSRA BR BKN025CB
     FM272300 27005KT P6SM VCTS SCT040CB BKN100
     FM280700 VRB03KT 4SM BR BKN020=

USA.gov is the U.S. government's official web portal to all federal, state and local government web resources and services.